Flight Track Log - Related Links

Times and Time Zones

All times are in EDT time to prevent confusion due to time zone crossing. See the N474RL flight status page for this flight to view local times or setup timezone preferences in your user account.

Time Position Orientation Groundspeed Altitude Reporting Facility
EDT Latitude Longitude Course Direction KTS MPH feet Rate Location/Type
Tue 01:26:00 PM 34.7906 -82.1069 78° East  Level FlightAware Approximate
Tue 01:27:00 PM 34.7979 -82.0636 78° East  Level FlightAware Approximate
Tue 01:28:00 PM 34.8052 -82.0203 78° East  Level FlightAware Approximate
Tue 01:29:00 PM 34.8125 -81.9770 78° East  Level FlightAware Approximate
Tue 01:30:00 PM 34.8198 -81.9336 78° East  Level FlightAware Approximate
Tue 01:31:00 PM 34.8270 -81.8903 78° East  Level FlightAware Approximate
Tue 01:32:00 PM 34.8342 -81.8469 78° East  Level FlightAware Approximate
Tue 01:33:00 PM 34.8415 -81.8036 79° East  Level FlightAware Approximate
Tue 01:33:14 PM 34.7006 -81.5806 79° East 174 200 7,500  Level Atlanta Center
Tue 01:34:00 PM 34.8487 -81.7602 79° East  Level FlightAware Approximate
Tue 01:34:03 PM 34.6972 -81.5300 95° East 179 206 7,500  Level Atlanta Center
Tue 01:35:00 PM 34.8559 -81.7168 79° East  Level FlightAware Approximate
Tue 01:35:04 PM 34.7025 -81.4717 84° East 171 197 7,500  Level Atlanta Center
Tue 01:35:59 PM 34.6931 -81.4189 102° East 177 204 7,500  Level Atlanta Center
Tue 01:36:00 PM 34.8630 -81.6735 79° East  Level FlightAware Approximate
Tue 01:37:00 PM 34.6814 -81.3639 104° East 172 198 7,500  Level Atlanta Center
Tue 01:37:00 PM 34.8702 -81.6301 79° East  Level FlightAware Approximate
Tue 01:38:00 PM 34.8773 -81.5867 79° East  Level FlightAware Approximate
Tue 01:38:07 PM 34.6778 -81.2931 94° East 180 207 7,500  Level Atlanta Center
Tue 01:39:02 PM 34.6517 -81.2461 124° Southeast 180 207 7,500  Level Atlanta Center
Tue 01:40:03 PM 34.6336 -81.1911 112° Southeast 177 204 7,500 155 Level Atlanta Center
Tue 01:40:58 PM 34.6303 -81.1383 94° East 171 197 7,800 446 Climbing Atlanta Center
Tue 01:42:04 PM 34.6478 -81.0872 67° East 141 162 8,400 472 Climbing Atlanta Center
Tue 01:43:05 PM 34.6633 -81.0411 68° East 141 162 8,800 295 Climbing Atlanta Center
Tue 01:44:06 PM 34.6811 -81.0000 62° Northeast 146 168 9,000 103 Climbing Atlanta Center
Tue 01:45:01 PM 34.6967 -80.9514 69° East 162 186 9,000  Level Atlanta Center
Tue 01:45:56 PM 34.7142 -80.9003 67° East 171 197 9,000  Level Atlanta Center
Tue 01:46:56 PM 34.7336 -80.8467 66° East 173 199 9,000  Level Atlanta Center
Tue 01:47:57 PM 34.7511 -80.7978 66° East 169 194 9,000  Level Atlanta Center
Tue 01:53:26 PM 34.8550 -80.4995 65° Northeast 173 199 9,000  Level FlightAware ADS-B (EFHN)
Tue 01:54:08 PM 34.8653 -80.4694 65° Northeast 173 199 9,000  Level Atlanta Center
Tue 01:55:14 PM 34.8883 -80.4100 65° Northeast 171 197 9,000  Level Atlanta Center
Tue 01:56:15 PM 34.9056 -80.3561 69° East 171 197 9,000  Level Atlanta Center
Tue 02:02:17 PM 35.0133 -80.0375 70° East 173 199 9,000 -108 Level Washington Center
Tue 02:04:00 PM 35.0339 -79.9612 61° Northeast  Level FlightAware Approximate
Tue 02:05:00 PM 35.0538 -79.9166 61° Northeast  Level FlightAware Approximate
Tue 02:05:28 PM 35.0806 -79.8558 61° Northeast 194 223 8,000  Level Washington Center
Tue 02:08:39 PM 35.1481 -79.6564 59° Northeast 207 238 5,600 -754 Descending Washington Center
Tue 02:14:00 PM 35.2159 -79.4182 59° Northeast  Level FlightAware Approximate

Login

Don't have an account? Register now (free) for customized features, flight alerts, and more!